createdAt,value
2023-03-29T00:01:35.774Z,2.47
2023-03-29T00:04:04.318Z,2.50
2023-03-29T00:06:33.183Z,2.40
2023-03-29T00:09:00.277Z,2.10
2023-03-29T00:11:27.489Z,2.92
2023-03-29T00:13:54.298Z,2.70
2023-03-29T00:16:21.389Z,2.13
2023-03-29T00:18:48.125Z,2.42
2023-03-29T00:21:15.232Z,2.13
2023-03-29T00:23:42.068Z,2.30
2023-03-29T00:26:08.831Z,1.92
2023-03-29T00:28:35.783Z,2.45
2023-03-29T00:31:13.967Z,2.97
2023-03-29T00:33:41.444Z,2.65
2023-03-29T00:36:09.029Z,2.10
2023-03-29T00:38:36.210Z,2.45
2023-03-29T00:41:04.297Z,2.30
2023-03-29T00:43:31.301Z,2.22
2023-03-29T00:46:01.404Z,2.13
2023-03-29T00:48:30.125Z,2.00
2023-03-29T00:50:59.466Z,2.65
2023-03-29T00:53:33.468Z,2.60
2023-03-29T00:56:06.424Z,2.33
2023-03-29T00:58:35.906Z,2.00
2023-03-29T01:01:09.717Z,2.50
2023-03-29T01:03:41.520Z,2.97
2023-03-29T01:06:10.685Z,2.28
2023-03-29T01:08:58.012Z,2.38
2023-03-29T01:11:27.481Z,2.58
2023-03-29T01:14:05.570Z,1.95
2023-03-29T01:16:35.129Z,2.50
2023-03-29T01:19:02.396Z,2.28
2023-03-29T01:21:44.886Z,2.40
2023-03-29T01:24:11.791Z,2.30
2023-03-29T01:26:42.455Z,2.17
2023-03-29T01:29:09.417Z,2.40
2023-03-29T01:31:42.328Z,2.17
2023-03-29T01:34:18.664Z,2.40
2023-03-29T01:36:58.793Z,2.55
2023-03-29T01:39:25.705Z,2.00
2023-03-29T01:42:07.840Z,2.03
2023-03-29T01:44:45.711Z,2.50
2023-03-29T01:47:18.872Z,2.53
2023-03-29T01:50:08.870Z,2.55
2023-03-29T01:52:39.857Z,2.45
2023-03-29T01:55:10.973Z,1.90
2023-03-29T01:57:39.238Z,2.55
2023-03-29T02:00:09.925Z,1.95
2023-03-29T02:02:43.312Z,2.47
2023-03-29T02:05:10.679Z,2.60
2023-03-29T02:07:38.741Z,2.15
2023-03-29T02:10:09.626Z,2.50
2023-03-29T02:12:37.260Z,2.30
2023-03-29T02:15:07.060Z,2.42
2023-03-29T02:17:34.586Z,2.42
2023-03-29T02:20:13.992Z,2.72
2023-03-29T02:22:48.420Z,2.55
2023-03-29T02:25:15.976Z,2.58
2023-03-29T02:27:43.012Z,2.30
2023-03-29T02:30:11.368Z,2.20
2023-03-29T02:32:49.377Z,2.53
2023-03-29T02:35:20.954Z,2.45
2023-03-29T02:37:49.554Z,2.15
2023-03-29T02:40:17.097Z,2.25
2023-03-29T02:42:45.598Z,2.28
2023-03-29T02:45:14.352Z,2.22
2023-03-29T02:47:44.857Z,2.95
2023-03-29T02:50:12.051Z,2.38
2023-03-29T02:52:41.040Z,2.65
2023-03-29T02:55:16.974Z,2.97
2023-03-29T02:57:44.063Z,2.70
2023-03-29T03:00:12.157Z,2.10
2023-03-29T03:02:39.009Z,2.17
2023-03-29T03:05:09.489Z,2.80
2023-03-29T03:07:37.421Z,2.20
2023-03-29T03:10:04.482Z,2.83
2023-03-29T03:12:31.399Z,3.30
2023-03-29T03:14:58.373Z,2.45
2023-03-29T03:17:25.364Z,2.55
2023-03-29T03:19:53.297Z,2.30
2023-03-29T03:22:20.988Z,2.90
2023-03-29T03:24:49.316Z,2.38
2023-03-29T03:27:18.064Z,2.58
2023-03-29T03:29:45.385Z,2.47
2023-03-29T03:32:15.050Z,2.80
2023-03-29T03:35:17.057Z,2.38
2023-03-29T03:37:44.203Z,2.78
2023-03-29T03:40:13.984Z,2.78
2023-03-29T03:42:41.330Z,2.60
2023-03-29T03:45:09.538Z,2.50
2023-03-29T03:47:42.405Z,2.65
2023-03-29T03:50:32.802Z,2.42
2023-03-29T03:52:59.943Z,2.53
2023-03-29T03:55:34.668Z,2.40
2023-03-29T03:58:15.143Z,2.47
2023-03-29T04:00:42.738Z,2.50
2023-03-29T04:03:32.680Z,2.72
2023-03-29T04:05:59.981Z,2.70
2023-03-29T04:08:29.223Z,2.55
2023-03-29T04:11:19.081Z,2.50
2023-03-29T04:13:46.281Z,2.53
2023-03-29T04:16:25.190Z,2.72
2023-03-29T04:18:52.900Z,2.40
2023-03-29T04:21:21.846Z,3.08
2023-03-29T04:23:48.835Z,2.53
2023-03-29T04:26:15.934Z,3.13
2023-03-29T04:28:52.158Z,2.67
2023-03-29T04:31:30.541Z,2.88
2023-03-29T04:34:20.206Z,3.05
2023-03-29T04:36:50.313Z,2.78
2023-03-29T04:39:21.934Z,2.63
2023-03-29T04:41:54.166Z,2.85
2023-03-29T04:44:24.949Z,2.70
2023-03-29T04:46:52.198Z,2.95
2023-03-29T04:49:42.957Z,2.92
2023-03-29T04:52:17.402Z,2.90
2023-03-29T04:54:44.320Z,3.03
2023-03-29T04:57:25.888Z,3.13
2023-03-29T05:00:00.690Z,3.55
2023-03-29T05:02:52.005Z,2.88
2023-03-29T05:05:19.734Z,3.17
2023-03-29T05:07:48.277Z,3.15
2023-03-29T05:10:17.974Z,3.08
2023-03-29T05:12:46.963Z,3.28
2023-03-29T05:15:14.971Z,2.75
2023-03-29T05:17:42.274Z,2.92
2023-03-29T05:20:16.104Z,3.45
2023-03-29T05:25:48.882Z,3.47
2023-03-29T05:28:16.173Z,2.83
2023-03-29T05:30:43.167Z,3.17
2023-03-29T05:33:20.357Z,3.40
2023-03-29T05:35:47.202Z,3.20
2023-03-29T05:38:14.049Z,3.10
2023-03-29T05:40:41.577Z,3.72
2023-03-29T05:43:14.548Z,3.50
2023-03-29T05:45:44.004Z,3.55
2023-03-29T05:48:11.074Z,3.60
2023-03-29T05:50:42.788Z,4.22
2023-03-29T05:53:10.261Z,4.25
2023-03-29T05:55:37.690Z,3.58
2023-03-29T05:58:04.561Z,4.20
2023-03-29T06:00:36.979Z,4.20
2023-03-29T06:03:21.644Z,4.18
2023-03-29T06:05:56.728Z,3.88
2023-03-29T06:08:23.640Z,3.60
2023-03-29T06:11:28.584Z,4.00
2023-03-29T06:14:14.113Z,4.55
2023-03-29T06:16:47.182Z,4.00
2023-03-29T06:19:14.953Z,4.43
2023-03-29T06:21:42.083Z,4.00
2023-03-29T06:24:10.981Z,4.18
2023-03-29T06:26:44.301Z,3.50
2023-03-29T06:29:11.243Z,3.63
2023-03-29T06:31:40.952Z,3.88
2023-03-29T06:34:12.077Z,4.03
2023-03-29T06:36:38.950Z,4.38
2023-03-29T06:39:08.550Z,3.70
2023-03-29T06:41:55.541Z,4.25
2023-03-29T06:44:45.373Z,4.22
2023-03-29T06:47:19.219Z,4.00
2023-03-29T06:49:46.193Z,3.90
2023-03-29T06:52:36.113Z,4.25
2023-03-29T06:55:07.629Z,4.32
2023-03-29T06:57:36.115Z,4.20
2023-03-29T07:00:10.587Z,4.22
2023-03-29T07:02:58.749Z,4.63
2023-03-29T07:05:27.216Z,4.15
2023-03-29T07:07:59.867Z,3.97
2023-03-29T07:10:41.478Z,3.72
2023-03-29T07:13:49.052Z,4.32
2023-03-29T07:16:19.629Z,4.90
2023-03-29T07:19:05.298Z,4.28
2023-03-29T07:21:53.395Z,4.38
2023-03-29T07:24:23.171Z,4.93
2023-03-29T07:27:03.163Z,4.20
2023-03-29T07:29:32.551Z,4.78
2023-03-29T07:32:00.242Z,4.93
2023-03-29T07:34:42.361Z,4.82
2023-03-29T07:37:15.137Z,5.00
2023-03-29T07:39:43.844Z,5.25
2023-03-29T07:42:36.882Z,4.43
2023-03-29T07:45:05.105Z,4.93
2023-03-29T07:47:38.451Z,5.22
2023-03-29T07:50:07.434Z,4.78
2023-03-29T07:52:34.492Z,4.85
2023-03-29T07:55:13.314Z,5.40
2023-03-29T07:57:57.390Z,5.15
2023-03-29T08:00:25.184Z,5.03
2023-03-29T08:03:18.700Z,5.28
2023-03-29T08:05:45.829Z,5.70
2023-03-29T08:08:15.670Z,6.10
2023-03-29T08:10:50.486Z,5.55
2023-03-29T08:13:36.576Z,5.82
2023-03-29T08:16:21.833Z,5.63
2023-03-29T08:18:55.944Z,6.03
2023-03-29T08:21:26.565Z,6.07
2023-03-29T08:23:53.765Z,6.53
2023-03-29T08:26:25.400Z,5.90
2023-03-29T08:28:52.436Z,6.15
2023-03-29T08:31:20.955Z,6.25
2023-03-29T08:33:48.205Z,6.68
2023-03-29T08:36:44.543Z,6.43
2023-03-29T08:42:02.443Z,6.88
2023-03-29T08:44:44.578Z,6.20
2023-03-29T08:47:25.639Z,6.30
2023-03-29T08:49:54.722Z,6.22
2023-03-29T08:52:36.955Z,6.32
2023-03-29T08:55:32.885Z,6.65
2023-03-29T08:58:29.189Z,7.13
2023-03-29T09:00:58.538Z,7.22
2023-03-29T09:03:30.100Z,7.38
2023-03-29T09:06:06.046Z,7.13
2023-03-29T09:08:40.150Z,7.65
2023-03-29T09:11:26.227Z,7.32
2023-03-29T09:14:12.233Z,6.68
2023-03-29T09:16:48.606Z,7.00
2023-03-29T09:19:30.876Z,7.25
2023-03-29T09:21:58.369Z,7.53
2023-03-29T09:24:31.676Z,7.93
2023-03-29T09:27:06.462Z,8.02
2023-03-29T09:29:43.125Z,7.10
2023-03-29T09:32:21.563Z,7.60
2023-03-29T09:35:00.119Z,7.70
2023-03-29T09:37:35.885Z,7.30
2023-03-29T09:40:06.768Z,8.25
2023-03-29T09:42:49.547Z,7.53
2023-03-29T09:45:16.627Z,7.80
2023-03-29T09:47:57.250Z,8.25
2023-03-29T09:50:34.022Z,8.95
2023-03-29T09:53:05.607Z,8.43
2023-03-29T09:55:37.381Z,9.10
2023-03-29T09:58:16.189Z,8.68
2023-03-29T10:00:48.260Z,9.10
2023-03-29T10:03:19.626Z,8.57
2023-03-29T10:05:55.021Z,9.05
2023-03-29T10:08:36.605Z,9.57
2023-03-29T10:11:09.651Z,9.02
2023-03-29T10:13:43.762Z,9.00
2023-03-29T10:16:18.278Z,8.65
2023-03-29T10:18:45.510Z,9.20
2023-03-29T10:21:15.643Z,9.95
2023-03-29T10:23:42.658Z,9.40
2023-03-29T10:26:29.856Z,9.70
2023-03-29T10:28:57.523Z,11.05
2023-03-29T10:31:28.844Z,12.73
2023-03-29T10:34:01.558Z,12.80
2023-03-29T10:36:31.412Z,13.38
2023-03-29T10:38:59.848Z,13.25
2023-03-29T10:41:30.996Z,13.50
2023-03-29T10:43:58.726Z,14.90
2023-03-29T10:46:28.217Z,13.98
2023-03-29T10:48:59.950Z,14.30
2023-03-29T10:51:30.093Z,14.65
2023-03-29T10:53:58.318Z,15.32
2023-03-29T10:56:47.224Z,14.38
2023-03-29T10:59:22.852Z,15.32
2023-03-29T11:02:02.398Z,15.35
2023-03-29T11:04:38.204Z,17.20
2023-03-29T11:07:23.946Z,17.60
2023-03-29T11:09:57.427Z,17.17
2023-03-29T11:12:28.237Z,17.30
2023-03-29T11:14:55.162Z,18.63
2023-03-29T11:17:40.843Z,18.20
2023-03-29T11:20:27.050Z,18.23
2023-03-29T11:23:12.186Z,18.35
2023-03-29T11:25:45.236Z,18.77
2023-03-29T11:28:15.294Z,16.90
2023-03-29T11:30:57.263Z,17.77
2023-03-29T11:33:24.453Z,17.65
2023-03-29T11:35:56.510Z,17.55
2023-03-29T11:38:28.247Z,17.75
2023-03-29T11:41:10.980Z,17.83
2023-03-29T11:43:40.730Z,18.70
2023-03-29T11:46:17.589Z,19.02
2023-03-29T11:48:50.995Z,19.65
2023-03-29T11:51:26.474Z,18.42
2023-03-29T11:53:59.534Z,19.45
2023-03-29T11:56:29.481Z,18.55
2023-03-29T11:58:59.546Z,17.20
2023-03-29T12:01:38.987Z,17.33
2023-03-29T12:04:08.664Z,17.75
2023-03-29T12:06:36.057Z,15.98
2023-03-29T12:09:06.990Z,15.35
2023-03-29T12:11:39.617Z,13.68
2023-03-29T12:14:14.170Z,13.18
2023-03-29T12:16:46.062Z,13.27
2023-03-29T12:19:21.801Z,12.70
2023-03-29T12:21:49.142Z,12.85
2023-03-29T12:24:19.670Z,12.80
2023-03-29T12:26:53.683Z,12.23
2023-03-29T12:29:20.598Z,13.32
2023-03-29T12:31:53.496Z,13.23
2023-03-29T12:34:42.753Z,12.18
2023-03-29T12:37:43.237Z,12.35
2023-03-29T12:40:35.934Z,12.48
2023-03-29T12:43:43.494Z,12.15
2023-03-29T12:46:33.338Z,12.23
2023-03-29T12:49:05.997Z,11.23
2023-03-29T12:51:33.903Z,12.07
2023-03-29T12:54:07.599Z,11.98
2023-03-29T12:56:42.496Z,11.85
2023-03-29T12:59:44.892Z,11.43
2023-03-29T13:02:15.386Z,11.30
2023-03-29T13:04:42.348Z,11.35
2023-03-29T13:07:27.998Z,11.07
2023-03-29T13:10:11.067Z,10.83
2023-03-29T13:12:42.076Z,11.45
2023-03-29T13:15:14.953Z,11.82
2023-03-29T13:17:50.004Z,11.70
2023-03-29T13:20:23.055Z,10.27
2023-03-29T13:22:59.199Z,10.50
2023-03-29T13:25:31.972Z,10.57
2023-03-29T13:28:01.925Z,10.05
2023-03-29T13:30:34.531Z,9.80
2023-03-29T13:33:19.771Z,9.15
2023-03-29T13:35:58.604Z,9.07
2023-03-29T13:38:27.864Z,8.82
2023-03-29T13:41:23.131Z,8.90
2023-03-29T13:43:52.492Z,8.90
2023-03-29T13:46:41.080Z,8.00
2023-03-29T13:49:17.209Z,8.18
2023-03-29T13:51:53.176Z,8.50
2023-03-29T13:54:32.366Z,7.72
2023-03-29T13:57:05.050Z,7.80
2023-03-29T13:59:55.737Z,7.93
2023-03-29T14:02:31.614Z,7.40
2023-03-29T14:07:28.306Z,6.97
2023-03-29T14:09:56.401Z,7.00
2023-03-29T14:12:23.634Z,7.13
2023-03-29T14:14:58.745Z,7.22
2023-03-29T14:17:26.208Z,7.40
2023-03-29T14:19:53.612Z,7.15
2023-03-29T14:22:20.875Z,6.72
2023-03-29T14:24:52.305Z,7.10
2023-03-29T14:27:19.596Z,7.10
2023-03-29T14:29:47.702Z,6.50
2023-03-29T14:32:18.686Z,6.78
2023-03-29T14:34:49.091Z,7.35
2023-03-29T14:37:22.466Z,8.13
2023-03-29T14:39:49.458Z,7.15
2023-03-29T14:42:20.860Z,7.85
2023-03-29T14:44:48.434Z,7.22
2023-03-29T14:47:17.943Z,7.18
2023-03-29T14:49:45.182Z,6.88
2023-03-29T14:52:13.517Z,6.35
2023-03-29T14:54:42.666Z,5.43
2023-03-29T14:57:14.838Z,5.60
2023-03-29T14:59:42.876Z,5.10
2023-03-29T15:02:46.418Z,5.05
2023-03-29T15:05:25.553Z,4.60
2023-03-29T15:07:56.384Z,4.45
2023-03-29T15:10:25.020Z,4.53
2023-03-29T15:12:52.037Z,4.07
2023-03-29T15:15:19.357Z,3.75
2023-03-29T15:17:50.860Z,3.90
2023-03-29T15:20:21.565Z,3.42
2023-03-29T15:22:57.945Z,3.63
2023-03-29T15:25:29.120Z,3.88
2023-03-29T15:28:00.264Z,3.42
2023-03-29T15:30:51.665Z,3.58
2023-03-29T15:33:35.935Z,3.20
2023-03-29T15:36:05.093Z,3.33
2023-03-29T15:38:43.292Z,3.25
2023-03-29T15:41:12.066Z,2.90
2023-03-29T15:43:39.339Z,2.95
2023-03-29T15:46:06.685Z,2.92
2023-03-29T15:48:34.069Z,2.90
2023-03-29T15:51:05.455Z,3.05
2023-03-29T15:53:33.561Z,2.92
2023-03-29T15:56:01.978Z,2.75
2023-03-29T15:58:30.697Z,3.30
2023-03-29T16:01:00.100Z,3.00
2023-03-29T16:03:32.102Z,2.90
2023-03-29T16:05:58.915Z,2.40
2023-03-29T16:08:26.019Z,3.30
2023-03-29T16:10:52.846Z,2.65
2023-03-29T16:13:19.791Z,2.60
2023-03-29T16:15:46.592Z,2.83
2023-03-29T16:18:13.715Z,3.50
2023-03-29T16:20:41.405Z,3.25
2023-03-29T16:23:12.117Z,3.33
2023-03-29T16:25:40.030Z,4.85
2023-03-29T16:28:07.926Z,4.47
2023-03-29T16:30:35.330Z,3.78
2023-03-29T16:33:06.345Z,3.00
2023-03-29T16:35:33.929Z,3.20
2023-03-29T16:38:01.654Z,3.60
2023-03-29T16:40:28.632Z,3.50
2023-03-29T16:42:55.629Z,3.45
2023-03-29T16:45:22.518Z,3.90
2023-03-29T16:47:49.452Z,4.80
2023-03-29T16:50:19.163Z,4.32
2023-03-29T16:52:46.302Z,4.07
2023-03-29T16:55:13.840Z,4.90
2023-03-29T16:57:42.633Z,4.28
2023-03-29T17:00:16.404Z,3.92
2023-03-29T17:02:43.833Z,3.90
2023-03-29T17:05:11.193Z,4.75
2023-03-29T17:07:39.484Z,4.30
2023-03-29T17:10:08.356Z,5.20
2023-03-29T17:12:35.881Z,4.57
2023-03-29T17:15:03.458Z,4.90
2023-03-29T17:17:31.726Z,4.78
2023-03-29T17:19:58.712Z,4.80
2023-03-29T17:22:26.021Z,5.32
2023-03-29T17:24:53.694Z,4.95
2023-03-29T17:27:21.241Z,4.28
2023-03-29T17:29:48.888Z,4.70
2023-03-29T17:32:16.521Z,4.68
2023-03-29T17:34:43.482Z,5.05
2023-03-29T17:37:10.731Z,4.90
2023-03-29T17:39:37.953Z,5.18
2023-03-29T17:42:05.850Z,5.43
2023-03-29T17:44:33.462Z,6.38
2023-03-29T17:47:00.945Z,6.28
2023-03-29T17:49:28.157Z,6.30
2023-03-29T17:51:55.334Z,5.53
2023-03-29T17:54:22.368Z,6.13
2023-03-29T17:56:50.478Z,6.28
2023-03-29T17:59:19.923Z,6.03
2023-03-29T18:01:46.759Z,8.15
2023-03-29T18:04:13.961Z,8.65
2023-03-29T18:06:41.069Z,6.65
2023-03-29T18:09:09.680Z,6.00
2023-03-29T18:11:37.109Z,5.78
2023-03-29T18:14:05.407Z,6.13
2023-03-29T18:16:32.548Z,6.07
2023-03-29T18:18:59.480Z,6.00
2023-03-29T18:21:27.541Z,6.07
2023-03-29T18:23:56.651Z,4.90
2023-03-29T18:26:24.336Z,5.13
2023-03-29T18:28:51.539Z,5.25
2023-03-29T18:31:20.089Z,5.05
2023-03-29T18:33:48.024Z,4.68
2023-03-29T18:36:15.346Z,5.30
2023-03-29T18:38:44.085Z,4.80
2023-03-29T18:41:13.250Z,4.82
2023-03-29T18:43:41.005Z,5.13
2023-03-29T18:46:08.129Z,4.68
2023-03-29T18:48:44.850Z,5.18
2023-03-29T18:51:12.626Z,5.05
2023-03-29T18:53:41.689Z,5.43
2023-03-29T18:56:08.639Z,5.72
2023-03-29T18:58:36.325Z,5.45
2023-03-29T19:01:04.446Z,5.22
2023-03-29T19:03:32.614Z,5.47
2023-03-29T19:06:01.755Z,5.55
2023-03-29T19:08:28.893Z,5.07
2023-03-29T19:11:03.431Z,5.05
2023-03-29T19:13:31.301Z,5.85
2023-03-29T19:15:58.618Z,5.43
2023-03-29T19:18:26.110Z,5.95
2023-03-29T19:20:56.559Z,6.57
2023-03-29T19:23:26.295Z,7.25
2023-03-29T19:25:53.987Z,7.18
2023-03-29T19:28:21.479Z,7.40
2023-03-29T19:30:48.481Z,7.60
2023-03-29T19:33:15.833Z,6.20
2023-03-29T19:35:43.120Z,6.40
2023-03-29T19:38:10.157Z,6.13
2023-03-29T19:40:37.136Z,6.38
2023-03-29T19:43:04.580Z,5.97
2023-03-29T19:45:31.855Z,6.28
2023-03-29T19:48:02.986Z,5.38
2023-03-29T19:50:31.716Z,6.22
2023-03-29T19:52:58.920Z,5.72
2023-03-29T19:55:27.002Z,5.75
2023-03-29T19:57:53.989Z,6.10
2023-03-29T20:00:24.545Z,5.57
2023-03-29T20:02:52.500Z,5.40
2023-03-29T20:05:23.212Z,5.13
2023-03-29T20:07:50.425Z,5.50
2023-03-29T20:10:17.440Z,4.85
2023-03-29T20:12:44.391Z,4.75
2023-03-29T20:15:11.497Z,4.70
2023-03-29T20:17:40.983Z,4.80
2023-03-29T20:20:11.006Z,5.00
2023-03-29T20:22:42.199Z,5.38
2023-03-29T20:25:12.216Z,5.03
2023-03-29T20:27:41.084Z,4.95
2023-03-29T20:30:08.391Z,5.28
2023-03-29T20:32:35.383Z,5.35
2023-03-29T20:35:02.289Z,4.82
2023-03-29T20:37:29.253Z,5.28
2023-03-29T20:39:59.485Z,5.43
2023-03-29T20:42:28.719Z,5.53
2023-03-29T20:44:56.279Z,5.13
2023-03-29T20:47:25.634Z,5.65
2023-03-29T20:49:54.215Z,5.18
2023-03-29T20:52:22.417Z,5.28
2023-03-29T20:54:49.514Z,4.88
2023-03-29T20:57:18.735Z,4.63
2023-03-29T20:59:46.399Z,5.10
2023-03-29T21:02:19.000Z,5.47
2023-03-29T21:04:48.867Z,5.45
2023-03-29T21:07:17.079Z,5.30
2023-03-29T21:09:44.068Z,5.20
2023-03-29T21:12:11.226Z,4.78
2023-03-29T21:14:38.177Z,5.22
2023-03-29T21:17:05.063Z,4.95
2023-03-29T21:19:32.375Z,5.07
2023-03-29T21:21:59.428Z,4.80
2023-03-29T21:24:26.232Z,4.80
2023-03-29T21:26:53.024Z,5.35
2023-03-29T21:29:21.056Z,4.82
2023-03-29T21:31:48.141Z,4.75
2023-03-29T21:34:17.194Z,5.90
2023-03-29T21:36:44.006Z,5.13
2023-03-29T21:39:11.312Z,5.05
2023-03-29T21:41:38.154Z,5.78
2023-03-29T21:44:05.018Z,4.93
2023-03-29T21:46:32.291Z,5.57
2023-03-29T21:48:59.433Z,5.60
2023-03-29T21:51:26.353Z,6.07
2023-03-29T21:53:53.161Z,4.75
2023-03-29T21:56:20.032Z,5.20
2023-03-29T21:58:47.231Z,5.57
2023-03-29T22:01:14.218Z,5.22
2023-03-29T22:03:41.205Z,4.68
2023-03-29T22:06:09.747Z,5.18
2023-03-29T22:08:41.723Z,6.15
2023-03-29T22:11:14.415Z,5.22
2023-03-29T22:13:41.885Z,5.15
2023-03-29T22:16:09.571Z,5.70
2023-03-29T22:18:43.355Z,5.45
2023-03-29T22:21:14.831Z,5.45
2023-03-29T22:23:42.272Z,4.93
2023-03-29T22:26:09.963Z,5.53
2023-03-29T22:28:37.364Z,5.28
2023-03-29T22:31:06.284Z,5.70
2023-03-29T22:33:34.229Z,5.38
2023-03-29T22:36:01.917Z,6.00
2023-03-29T22:38:29.442Z,5.38
2023-03-29T22:40:56.317Z,4.93
2023-03-29T22:43:23.199Z,5.07
2023-03-29T22:45:51.325Z,5.40
2023-03-29T22:48:18.464Z,5.22
2023-03-29T22:50:48.578Z,5.25
2023-03-29T22:53:15.624Z,5.15
2023-03-29T22:55:43.736Z,5.40
2023-03-29T22:58:10.821Z,4.85
2023-03-29T23:00:37.608Z,4.75
2023-03-29T23:03:04.661Z,4.95
2023-03-29T23:05:31.890Z,4.95
2023-03-29T23:07:58.938Z,4.63
2023-03-29T23:10:28.984Z,5.05
2023-03-29T23:13:09.744Z,4.43
2023-03-29T23:15:37.863Z,4.20
2023-03-29T23:18:05.098Z,4.43
2023-03-29T23:20:32.846Z,4.57
2023-03-29T23:23:00.274Z,3.63
2023-03-29T23:25:27.306Z,4.18
2023-03-29T23:27:54.855Z,4.28
2023-03-29T23:30:22.075Z,4.32
2023-03-29T23:32:49.582Z,4.20
2023-03-29T23:35:16.632Z,4.10
2023-03-29T23:37:43.903Z,4.03
2023-03-29T23:40:14.479Z,3.70
2023-03-29T23:42:42.345Z,3.58
2023-03-29T23:45:11.373Z,3.33
2023-03-29T23:47:39.429Z,3.42
2023-03-29T23:50:07.565Z,3.08
2023-03-29T23:52:34.560Z,3.30
2023-03-29T23:55:01.837Z,2.80
2023-03-29T23:57:28.960Z,3.10
2023-03-29T23:59:56.384Z,3.40
